Time;durP1;ratioP1;P1;durP2;ratioP2;P2;SDS_P1;SDS_P2;PMS_P1;PMS_P2;Temp;Humidity;BMP_temperature;BMP_pressure;BME280_temperature;BME280_humidity;BME280_pressure;Samples;Min_cycle;Max_cycle;Signal;HPM_P1;HPM_P2
2021/08/12 00:00:52;;;;;;;9.47;8.50;;;;;;;24.28;59.86;95106.22;6277048;22;20414;-83
2021/08/12 00:03:19;;;;;;;9.40;8.43;;;;;;;24.29;59.82;95110.56;6223989;22;20417;-84
2021/08/12 00:05:46;;;;;;;9.63;8.73;;;;;;;24.29;59.67;95111.41;6277102;22;20473;-84
2021/08/12 00:08:13;;;;;;;9.20;8.30;;;;;;;24.30;59.50;95109.53;6278641;22;20518;-84
2021/08/12 00:10:40;;;;;;;8.67;7.87;;;;;;;24.30;58.81;95109.53;6278431;22;20490;-84
2021/08/12 00:13:07;;;;;;;8.83;8.13;;;;;;;24.34;58.68;95108.09;6278663;22;20451;-84
2021/08/12 00:15:35;;;;;;;8.33;7.50;;;;;;;24.37;58.65;95108.47;6279500;22;20487;-84
2021/08/12 00:18:02;;;;;;;9.50;8.43;;;;;;;24.42;58.34;95096.28;6278855;22;20485;-84
2021/08/12 00:20:29;;;;;;;9.80;8.87;;;;;;;24.48;58.39;95107.00;6279079;22;20471;-84
2021/08/12 00:22:56;;;;;;;12.50;7.63;;;;;;;24.51;58.10;95105.75;6278490;22;20420;-84
2021/08/12 00:25:23;;;;;;;9.83;8.20;;;;;;;24.52;58.75;95102.03;6278468;22;20462;-84
2021/08/12 00:27:50;;;;;;;11.93;9.03;;;;;;;24.50;58.95;95104.94;6279036;22;20473;-83
2021/08/12 00:30:17;;;;;;;10.93;9.00;;;;;;;24.50;58.85;95115.66;6278802;22;20469;-84
2021/08/12 00:32:45;;;;;;;8.80;8.00;;;;;;;24.54;58.96;95108.00;6278310;22;20469;-83
2021/08/12 00:35:12;;;;;;;9.60;8.57;;;;;;;24.55;58.24;95102.44;6278850;22;20854;-84
2021/08/12 00:37:39;;;;;;;9.60;8.70;;;;;;;24.55;58.39;95098.94;6278744;22;20485;-84
2021/08/12 00:40:08;;;;;;;9.80;8.87;;;;;;;24.51;58.57;95103.91;6225262;22;20432;-84
2021/08/12 00:42:35;;;;;;;8.30;7.60;;;;;;;24.49;59.03;95102.47;6278216;22;20390;-84
2021/08/12 00:45:02;;;;;;;9.33;8.50;;;;;;;24.54;59.15;95106.16;6278598;22;20453;-84
2021/08/12 00:47:30;;;;;;;15.07;8.63;;;;;;;24.57;58.98;95107.59;6278146;22;20456;-84
2021/08/12 00:49:59;;;;;;;14.43;10.60;;;;;;;24.57;58.76;95111.09;6278228;22;20419;-85
2021/08/12 00:52:26;;;;;;;9.47;8.57;;;;;;;24.49;59.62;95105.16;6278031;22;20403;-84
2021/08/12 00:54:54;;;;;;;11.90;9.73;;;;;;;24.51;59.71;95111.94;6278157;22;20489;-84
2021/08/12 00:57:21;;;;;;;9.60;8.63;;;;;;;24.53;60.13;95095.63;6278475;22;20399;-84
2021/08/12 00:59:49;;;;;;;10.30;9.30;;;;;;;24.65;59.89;95096.66;6276728;22;20470;-84
2021/08/12 01:02:16;;;;;;;9.40;8.60;;;;;;;24.60;59.65;95102.66;6277858;22;20173;-84
2021/08/12 01:04:45;;;;;;;8.73;8.10;;;;;;;24.61;59.76;95101.63;6224133;22;20470;-84
2021/08/12 01:07:18;;;;;;;12.43;9.60;;;;;;;24.62;59.99;95100.56;6277678;22;20475;-84
2021/08/12 01:09:53;;;;;;;9.80;8.90;;;;;;;24.54;60.86;95095.41;6249633;22;20475;-83
2021/08/12 01:12:28;;;;;;;10.27;9.27;;;;;;;24.55;61.07;95096.25;6278109;22;20494;-84
2021/08/12 01:15:02;;;;;;;9.43;8.63;;;;;;;24.54;60.69;95097.28;6223924;22;20729;-84
2021/08/12 01:17:35;;;;;;;9.20;8.50;;;;;;;24.53;60.63;95093.78;6277244;22;20436;-84
2021/08/12 01:20:24;;;;;;;9.83;8.93;;;;;;;24.52;61.24;95102.84;6276930;22;20968;-84
2021/08/12 01:22:55;;;;;;;9.80;8.90;;;;;;;24.51;60.94;95103.06;6277221;22;20494;-84
2021/08/12 01:25:26;;;;;;;9.57;8.47;;;;;;;24.46;61.18;95090.28;6277347;22;20411;-84
2021/08/12 01:27:55;;;;;;;9.70;8.80;;;;;;;24.46;61.56;95097.53;6277604;22;20416;-84
2021/08/12 01:30:26;;;;;;;15.40;9.80;;;;;;;24.34;61.81;95103.53;6277390;22;20486;-84
2021/08/12 01:33:01;;;;;;;9.70;8.90;;;;;;;24.28;62.21;95093.63;6223853;22;20500;-84
2021/08/12 01:35:32;;;;;;;10.47;9.47;;;;;;;24.18;62.04;95087.03;6277587;22;20406;-84
2021/08/12 01:38:03;;;;;;;9.43;8.53;;;;;;;24.15;62.45;95090.94;6277296;22;20490;-84
2021/08/12 01:40:33;;;;;;;9.60;8.60;;;;;;;24.14;62.37;95096.53;6277397;22;20771;-84
2021/08/12 01:43:03;;;;;;;9.80;8.90;;;;;;;24.08;62.50;95088.28;6277201;22;20502;-84
2021/08/12 01:45:31;;;;;;;9.77;8.77;;;;;;;24.10;62.08;95096.94;6277370;22;20481;-84
2021/08/12 01:48:00;;;;;;;10.03;8.67;;;;;;;24.01;62.28;95087.47;6277374;22;20477;-84
2021/08/12 01:50:28;;;;;;;9.07;8.10;;;;;;;23.87;63.18;95091.19;6277728;22;20942;-84
2021/08/12 01:52:58;;;;;;;10.27;8.63;;;;;;;24.00;62.99;95093.88;6277997;22;20509;-84
2021/08/12 01:55:29;;;;;;;10.30;9.00;;;;;;;24.11;62.80;95092.41;6277578;22;20463;-83
2021/08/12 01:57:57;;;;;;;9.90;9.00;;;;;;;24.15;62.52;95099.00;6277434;22;20406;-84
2021/08/12 02:00:25;;;;;;;9.70;8.90;;;;;;;24.19;62.02;95088.69;6277664;22;20477;-83
2021/08/12 02:02:52;;;;;;;12.10;9.87;;;;;;;24.14;63.11;95091.16;6277753;22;20392;-83
2021/08/12 02:05:20;;;;;;;9.00;8.30;;;;;;;24.21;62.62;95098.16;6277602;22;20473;-83
2021/08/12 02:11:10;;;;;;;9.20;8.10;;;;;;;24.32;62.78;95096.75;6277403;22;20360;-83
2021/08/12 02:13:37;;;;;;;10.00;8.90;;;;;;;24.35;62.38;95104.38;6278109;22;20517;-84
2021/08/12 02:16:08;;;;;;;9.67;8.70;;;;;;;24.36;62.67;95114.06;6277852;22;20407;-84
2021/08/12 02:18:36;;;;;;;10.33;8.53;;;;;;;24.34;61.69;95110.78;6277300;22;20394;-84
2021/08/12 02:21:08;;;;;;;9.93;9.00;;;;;;;24.31;61.82;95109.31;6224566;22;20404;-84
2021/08/12 02:23:37;;;;;;;11.63;8.80;;;;;;;24.29;61.85;95107.91;6277285;22;20405;-84
2021/08/12 02:26:10;;;;;;;11.10;9.10;;;;;;;24.29;61.58;95102.53;6277070;22;20942;-84
2021/08/12 02:28:42;;;;;;;8.97;8.23;;;;;;;24.29;61.97;95105.22;6277618;22;20479;-84
2021/08/12 02:31:12;;;;;;;10.13;8.90;;;;;;;24.25;62.28;95109.28;6200512;22;20405;-84
2021/08/12 02:37:03;;;;;;;10.90;9.90;;;;;;;24.16;62.61;95107.88;6275827;22;20415;-84
2021/08/12 02:39:30;;;;;;;10.83;9.77;;;;;;;24.06;62.61;95105.63;6277311;22;20434;-84
2021/08/12 02:41:58;;;;;;;11.77;10.67;;;;;;;24.02;62.79;95113.25;6277151;22;20419;-84
2021/08/12 02:44:27;;;;;;;10.10;9.10;;;;;;;23.89;63.22;95104.38;6249608;22;20487;-84
2021/08/12 02:46:57;;;;;;;10.90;8.80;;;;;;;23.88;63.55;95114.28;6224428;22;20408;-84
2021/08/12 02:49:28;;;;;;;9.63;8.70;;;;;;;23.87;63.25;95112.63;6276946;22;20401;-85
2021/08/12 02:51:57;;;;;;;12.90;9.57;;;;;;;23.87;63.22;95112.63;6224444;22;20438;-85
2021/08/12 02:54:24;;;;;;;9.87;8.87;;;;;;;23.81;63.09;95124.19;6277293;22;20508;-84
2021/08/12 02:56:51;;;;;;;13.80;10.63;;;;;;;23.79;63.24;95131.59;6277248;22;20818;-82
2021/08/12 02:59:19;;;;;;;13.37;9.53;;;;;;;23.72;63.04;95125.44;6224725;22;20480;-84
2021/08/12 03:01:49;;;;;;;11.00;9.67;;;;;;;23.64;63.27;95125.59;6277211;22;20431;-84
2021/08/12 03:04:18;;;;;;;10.67;9.67;;;;;;;23.61;63.39;95118.81;6277219;22;20489;-84
2021/08/12 03:06:47;;;;;;;9.87;8.97;;;;;;;23.59;63.46;95120.03;6277378;22;20465;-84
2021/08/12 03:09:16;;;;;;;10.03;9.13;;;;;;;23.56;63.45;95123.13;6276875;22;20808;-84
2021/08/12 03:11:43;;;;;;;9.70;8.80;;;;;;;23.49;63.72;95125.78;6276809;22;20423;-84
2021/08/12 03:14:11;;;;;;;10.30;9.40;;;;;;;23.43;63.35;95126.59;6276749;22;20426;-84
2021/08/12 03:20:01;;;;;;;9.80;8.80;;;;;;;23.23;64.47;95128.41;6275325;22;20392;-84
2021/08/12 03:22:28;;;;;;;19.13;9.57;;;;;;;23.20;64.43;95129.63;6277195;22;20474;-84
2021/08/12 03:24:55;;;;;;;9.27;8.47;;;;;;;23.17;64.34;95128.19;6276851;22;20428;-84
2021/08/12 03:27:22;;;;;;;10.13;8.93;;;;;;;23.11;64.64;95122.78;6276967;22;20439;-84
2021/08/12 03:36:33;;;;;;;9.67;8.77;;;;;;;22.93;64.96;95130.56;6276183;22;20422;-84
2021/08/12 03:39:00;;;;;;;9.67;8.63;;;;;;;22.91;64.86;95128.09;6277342;22;20783;-84
2021/08/12 03:41:27;;;;;;;9.80;8.90;;;;;;;22.95;64.68;95128.50;6277111;22;20518;-84
2021/08/12 03:43:54;;;;;;;9.77;8.87;;;;;;;22.94;64.40;95130.38;6278425;22;20716;-84
2021/08/12 03:46:20;;;;;;;12.13;9.20;;;;;;;22.89;64.53;95135.50;6225408;22;20492;-84
2021/08/12 03:48:48;;;;;;;9.70;8.70;;;;;;;22.89;64.56;95137.34;6279454;22;20497;-84
2021/08/12 03:51:14;;;;;;;13.70;9.20;;;;;;;22.85;64.82;95145.78;6225519;22;20403;-84
2021/08/12 03:53:43;;;;;;;8.87;8.07;;;;;;;22.85;64.77;95135.06;6225551;22;20526;-84
2021/08/12 03:56:10;;;;;;;11.53;8.53;;;;;;;22.78;65.05;95141.38;6225924;22;20498;-84
2021/08/12 03:58:40;;;;;;;10.70;8.33;;;;;;;22.75;64.91;95144.44;6278543;22;20418;-84
2021/08/12 04:01:07;;;;;;;10.03;9.13;;;;;;;22.77;64.68;95140.53;6279137;22;20428;-84
2021/08/12 04:03:34;;;;;;;10.50;9.50;;;;;;;22.85;64.61;95145.78;6225995;22;20434;-84
2021/08/12 04:06:01;;;;;;;14.23;7.90;;;;;;;22.93;63.88;95146.63;6279073;22;20474;-84
2021/08/12 04:08:28;;;;;;;10.10;9.13;;;;;;;23.12;63.70;95145.84;6278411;22;20400;-84
2021/08/12 04:10:57;;;;;;;9.20;8.30;;;;;;;23.43;62.51;95158.75;6226085;22;20403;-85
2021/08/12 04:13:24;;;;;;;8.60;7.80;;;;;;;23.72;61.01;95154.91;6225935;22;20497;-84
2021/08/12 04:15:51;;;;;;;8.80;7.63;;;;;;;24.08;59.74;95157.19;6278668;22;20790;-85
2021/08/12 04:25:01;;;;;;;12.20;8.40;;;;;;;25.41;55.74;95153.13;6277282;22;20471;-84
2021/08/12 04:27:30;;;;;;;11.43;8.23;;;;;;;25.72;54.27;95159.56;6278442;22;20392;-84
2021/08/12 04:29:57;;;;;;;10.83;7.57;;;;;;;25.96;53.36;95160.66;6278943;22;20444;-84
2021/08/12 04:32:24;;;;;;;8.13;7.33;;;;;;;26.12;52.61;95165.50;6279062;22;20467;-84
2021/08/12 04:34:50;;;;;;;7.63;6.83;;;;;;;26.33;52.30;95167.81;6278201;22;20978;-82
2021/08/12 04:37:17;;;;;;;12.97;7.20;;;;;;;26.75;51.70;95163.47;6278496;22;20564;-84
2021/08/12 04:39:44;;;;;;;12.53;7.47;;;;;;;27.12;49.84;95172.41;6278320;22;20520;-83
2021/08/12 04:42:11;;;;;;;9.03;8.13;;;;;;;27.34;48.95;95172.75;6278146;22;20475;-82
2021/08/12 04:44:40;;;;;;;9.70;7.80;;;;;;;27.40;48.63;95181.78;6277663;22;20760;-83
2021/08/12 04:47:07;;;;;;;9.47;7.00;;;;;;;27.46;48.53;95183.59;6278092;22;20483;-83
2021/08/12 04:49:33;;;;;;;10.67;7.63;;;;;;;27.54;48.69;95174.38;6224453;22;20479;-83
2021/08/12 04:52:00;;;;;;;8.30;7.57;;;;;;;27.71;47.79;95180.78;6277427;22;21126;-82
2021/08/12 04:54:27;;;;;;;7.90;7.20;;;;;;;27.77;47.80;95169.94;6276807;22;20443;-82
2021/08/12 04:56:54;;;;;;;10.40;9.30;;;;;;;27.90;47.04;95176.16;6277296;22;20487;-82
2021/08/12 04:59:21;;;;;;;8.23;7.43;;;;;;;28.04;47.20;95180.28;6277513;22;20491;-81
2021/08/12 05:01:53;;;;;;;10.97;7.73;;;;;;;28.25;45.94;95190.56;6225302;22;20953;-83
2021/08/12 05:04:20;;;;;;;9.30;7.90;;;;;;;28.37;45.76;95180.63;6277494;22;20396;-82
2021/08/12 05:06:47;;;;;;;8.67;7.77;;;;;;;28.55;46.15;95181.56;6224865;22;20777;-83
2021/08/12 05:09:14;;;;;;;9.23;7.67;;;;;;;28.57;45.51;95188.38;6277378;22;20443;-83
2021/08/12 05:11:41;;;;;;;8.90;7.63;;;;;;;28.68;45.36;95189.44;6277407;22;20472;-84
2021/08/12 05:14:08;;;;;;;10.83;7.80;;;;;;;28.77;44.66;95188.03;6277796;22;21201;-85
2021/08/12 05:16:35;;;;;;;8.30;7.57;;;;;;;28.79;45.32;95193.19;6278209;22;20475;-84
2021/08/12 05:19:03;;;;;;;8.20;7.50;;;;;;;28.95;44.90;95197.91;6224869;22;20476;-83
2021/08/12 05:21:30;;;;;;;10.77;7.57;;;;;;;29.07;45.17;95195.19;6224970;22;20492;-83
2021/08/12 05:23:57;;;;;;;10.00;7.10;;;;;;;29.21;44.43;95205.53;6277734;22;20463;-83
2021/08/12 05:26:24;;;;;;;8.00;7.20;;;;;;;29.37;44.34;95209.34;6277843;22;20483;-83
2021/08/12 05:28:51;;;;;;;9.20;7.20;;;;;;;29.55;43.79;95201.09;6277040;22;20436;-82
2021/08/12 05:31:18;;;;;;;8.87;7.20;;;;;;;29.57;43.56;95208.97;6221489;22;20479;-82
2021/08/12 05:33:45;;;;;;;8.30;7.53;;;;;;;29.75;43.25;95206.06;6276564;22;20408;-82
2021/08/12 05:36:13;;;;;;;8.40;7.60;;;;;;;29.94;43.79;95209.41;6277230;22;20486;-82
2021/08/12 05:38:40;;;;;;;9.87;7.07;;;;;;;30.07;43.07;95211.84;6276551;22;20479;-82
2021/08/12 05:41:07;;;;;;;7.97;7.13;;;;;;;30.24;42.96;95211.03;6276630;22;20825;-82
2021/08/12 05:43:34;;;;;;;8.40;7.03;;;;;;;30.39;42.21;95219.44;6222799;22;20468;-83
2021/08/12 05:46:01;;;;;;;9.07;8.27;;;;;;;30.45;42.24;95218.44;6275543;22;20397;-83
2021/08/12 05:48:28;;;;;;;7.47;6.87;;;;;;;30.53;42.10;95215.31;6276505;22;20420;-83
2021/08/12 05:50:55;;;;;;;9.70;7.20;;;;;;;30.45;42.01;95218.44;6276124;22;20813;-83
2021/08/12 05:53:25;;;;;;;8.40;7.70;;;;;;;30.58;41.81;95217.28;6274135;22;20483;-81
2021/08/12 05:55:52;;;;;;;8.77;7.10;;;;;;;30.75;42.10;95218.13;6276321;22;20452;-81
2021/08/12 05:58:19;;;;;;;8.67;7.87;;;;;;;30.95;41.88;95206.78;6274365;22;20401;-82
2021/08/12 06:00:46;;;;;;;7.60;6.83;;;;;;;31.08;41.41;95217.25;6276005;22;20918;-83
2021/08/12 06:03:14;;;;;;;12.80;7.70;;;;;;;31.17;41.17;95213.06;6276797;22;20499;-82
2021/08/12 06:05:42;;;;;;;9.73;6.90;;;;;;;31.33;40.58;95209.50;6276330;22;20503;-84
2021/08/12 06:08:11;;;;;;;10.07;7.53;;;;;;;31.55;40.15;95211.41;6277875;22;20476;-82
2021/08/12 06:10:41;;;;;;;8.20;7.40;;;;;;;31.80;39.59;95225.28;6277016;22;20888;-82
2021/08/12 06:13:08;;;;;;;8.00;7.20;;;;;;;32.04;38.89;95223.09;6276664;22;20960;-82
2021/08/12 06:15:35;;;;;;;8.43;7.73;;;;;;;32.26;38.80;95218.47;6276998;22;20440;-82
2021/08/12 06:18:07;;;;;;;8.73;7.40;;;;;;;32.40;38.63;95216.16;6276745;22;20396;-83
2021/08/12 06:20:33;;;;;;;8.67;7.87;;;;;;;32.47;38.16;95215.94;6247446;22;20411;-83
2021/08/12 06:23:01;;;;;;;9.23;7.50;;;;;;;32.53;37.36;95217.59;6274198;22;20408;-83
2021/08/12 06:25:28;;;;;;;9.10;8.37;;;;;;;32.51;37.98;95217.88;6273734;22;20411;-80
2021/08/12 06:27:56;;;;;;;8.80;8.03;;;;;;;32.66;37.18;95212.53;6274283;22;20788;-83
2021/08/12 06:30:23;;;;;;;12.07;8.20;;;;;;;32.86;37.65;95219.25;6274987;22;20484;-83
2021/08/12 06:32:50;;;;;;;9.03;8.13;;;;;;;32.96;37.43;95213.88;6222675;22;20803;-83
2021/08/12 06:35:18;;;;;;;11.15;9.00;;;;;;;33.16;38.06;95216.72;6273631;22;20806;-81
2021/08/12 06:37:45;;;;;;;9.10;8.20;;;;;;;33.18;36.79;95219.16;6221239;22;20488;-83
2021/08/12 06:40:14;;;;;;;10.83;8.63;;;;;;;33.16;36.78;95215.91;6274241;22;20997;-83
2021/08/12 06:42:41;;;;;;;10.53;8.10;;;;;;;33.36;36.94;95220.66;6275319;22;20413;-83
2021/08/12 06:45:11;;;;;;;15.30;9.13;;;;;;;33.61;37.38;95226.22;6274714;22;20479;-85
2021/08/12 06:47:38;;;;;;;9.97;8.90;;;;;;;33.75;36.26;95226.53;6221938;22;20507;-83
2021/08/12 06:50:05;;;;;;;9.90;8.20;;;;;;;33.89;36.53;95226.91;6274648;22;20923;-83
2021/08/12 06:52:33;;;;;;;8.70;7.80;;;;;;;33.90;37.07;95232.09;6275003;22;20796;-82
2021/08/12 06:55:00;;;;;;;11.20;8.57;;;;;;;33.67;37.41;95237.97;6276485;22;20531;-82
2021/08/12 06:57:27;;;;;;;10.07;9.03;;;;;;;33.52;36.41;95227.81;6275937;22;20472;-82
2021/08/12 06:59:54;;;;;;;10.10;9.17;;;;;;;33.51;36.59;95226.16;6275461;22;20404;-81
2021/08/12 07:02:22;;;;;;;8.97;8.07;;;;;;;33.51;36.74;95228.88;6276423;22;20406;-81
2021/08/12 07:04:49;;;;;;;8.90;8.00;;;;;;;33.57;37.09;95233.28;6277067;22;20983;-82
2021/08/12 07:07:16;;;;;;;12.03;8.70;;;;;;;33.46;37.22;95228.88;6276866;22;20400;-82
2021/08/12 07:09:43;;;;;;;10.67;9.57;;;;;;;33.52;37.67;95227.81;6276972;22;20483;-82
2021/08/12 07:12:10;;;;;;;12.00;8.93;;;;;;;33.49;38.07;95229.16;6276806;22;20412;-82
2021/08/12 07:14:38;;;;;;;9.80;8.90;;;;;;;33.31;38.29;95226.06;6277222;22;20493;-82
2021/08/12 07:17:05;;;;;;;9.03;7.90;;;;;;;33.25;39.65;95231.47;6276937;22;20947;-82
2021/08/12 07:19:34;;;;;;;9.70;8.70;;;;;;;33.08;39.07;95230.81;6276512;22;20483;-81
2021/08/12 07:22:01;;;;;;;10.13;9.07;;;;;;;33.18;38.84;95236.31;6277111;22;20396;-82
2021/08/12 07:24:28;;;;;;;9.03;8.20;;;;;;;33.39;37.79;95241.91;6277024;22;20479;-82
2021/08/12 07:26:57;;;;;;;8.67;7.93;;;;;;;33.37;38.72;95238.63;6275800;22;20392;-82
2021/08/12 07:29:24;;;;;;;9.53;8.63;;;;;;;33.40;38.17;95230.75;6276604;22;20401;-82
2021/08/12 07:31:51;;;;;;;13.23;9.20;;;;;;;33.46;38.76;95231.59;6276388;22;20960;-81
2021/08/12 07:34:18;;;;;;;9.50;8.60;;;;;;;33.58;38.86;95229.50;6276886;22;20495;-82
2021/08/12 07:36:47;;;;;;;11.33;9.17;;;;;;;33.72;38.80;95233.34;6276751;22;20956;-82
2021/08/12 07:39:15;;;;;;;11.63;9.77;;;;;;;33.62;38.01;95235.22;6276643;22;20411;-82
2021/08/12 07:41:43;;;;;;;14.00;9.47;;;;;;;33.65;38.50;95227.34;6276984;22;20434;-82
2021/08/12 07:44:10;;;;;;;11.87;10.07;;;;;;;33.40;37.81;95240.81;6275791;22;20959;-81
2021/08/12 07:46:37;;;;;;;13.30;10.77;;;;;;;33.54;39.38;95231.94;6249015;22;20491;-82
2021/08/12 07:49:04;;;;;;;13.57;9.30;;;;;;;33.61;39.63;95239.03;6277222;22;20882;-82
2021/08/12 07:51:31;;;;;;;10.60;9.50;;;;;;;33.58;38.43;95228.66;6276583;22;20980;-82
2021/08/12 07:53:59;;;;;;;9.37;8.57;;;;;;;33.72;37.50;95236.06;6276532;22;20472;-82
2021/08/12 07:56:26;;;;;;;10.67;9.57;;;;;;;33.83;37.17;95234.25;6276833;22;20451;-82
2021/08/12 07:58:53;;;;;;;15.87;10.20;;;;;;;33.89;37.13;95232.34;6276500;22;20789;-82
2021/08/12 08:01:20;;;;;;;18.67;11.07;;;;;;;33.84;38.71;95223.09;6221911;22;20404;-81
2021/08/12 08:03:48;;;;;;;13.20;10.80;;;;;;;33.90;37.40;95226.63;6273912;22;20952;-82
2021/08/12 08:06:15;;;;;;;11.17;10.00;;;;;;;33.93;38.54;95228.00;6275612;22;20436;-82
2021/08/12 08:08:42;;;;;;;54.67;16.93;;;;;;;33.96;38.01;95225.56;6221504;22;20767;-82
2021/08/12 08:11:14;;;;;;;14.30;10.83;;;;;;;33.62;38.03;95230.59;6274291;22;20396;-82
2021/08/12 08:13:41;;;;;;;10.90;9.80;;;;;;;33.61;37.85;95226.22;6275072;22;20459;-82
2021/08/12 08:16:08;;;;;;;15.87;10.73;;;;;;;33.86;38.75;95220.09;6272280;22;20468;-81
2021/08/12 08:18:35;;;;;;;16.60;10.87;;;;;;;33.97;37.60;95218.22;6276091;22;20487;-82
2021/08/12 08:21:02;;;;;;;13.83;10.27;;;;;;;33.85;37.56;95216.56;6276517;22;20880;-82
2021/08/12 08:23:29;;;;;;;9.83;8.57;;;;;;;33.95;37.76;95217.66;6275673;22;20439;-81
2021/08/12 08:25:56;;;;;;;10.23;9.00;;;;;;;34.04;36.37;95216.03;6275228;22;20484;-81
2021/08/12 08:28:24;;;;;;;10.27;9.27;;;;;;;34.09;34.87;95219.59;6274729;22;20965;-82
2021/08/12 08:30:51;;;;;;;10.83;8.13;;;;;;;34.10;36.74;95220.41;6277162;22;20484;-82
2021/08/12 08:33:18;;;;;;;12.27;9.10;;;;;;;34.15;34.71;95209.53;6249240;22;20408;-82
2021/08/12 08:35:45;;;;;;;10.17;9.23;;;;;;;34.30;35.47;95208.72;6276625;22;20527;-82
2021/08/12 08:38:12;;;;;;;10.57;9.00;;;;;;;34.51;35.33;95210.41;6277043;22;20484;-82
2021/08/12 08:40:39;;;;;;;10.30;9.27;;;;;;;34.41;35.01;95213.16;6276735;22;20958;-81
2021/08/12 08:43:07;;;;;;;10.40;9.37;;;;;;;34.16;37.02;95206.53;6276536;22;20487;-82
2021/08/12 08:45:39;;;;;;;13.10;9.63;;;;;;;34.24;36.60;95213.34;6275646;22;20412;-82
2021/08/12 08:48:12;;;;;;;18.33;9.70;;;;;;;34.29;35.74;95205.19;6276673;22;20412;-82
2021/08/12 08:50:42;;;;;;;8.60;7.87;;;;;;;34.57;36.24;95197.59;6276628;22;20404;-82
2021/08/12 08:53:14;;;;;;;8.63;7.93;;;;;;;34.74;34.91;95209.06;6222171;22;20528;-81
2021/08/12 08:55:41;;;;;;;13.20;8.07;;;;;;;34.79;34.01;95212.59;6274502;22;20989;-82
2021/08/12 08:58:10;;;;;;;10.20;7.53;;;;;;;34.84;32.81;95209.06;6276782;22;20475;-82
2021/08/12 09:00:39;;;;;;;8.03;7.33;;;;;;;34.86;32.57;95206.06;6275677;22;20401;-82
2021/08/12 09:03:06;;;;;;;9.70;7.93;;;;;;;34.85;33.75;95204.44;6274936;22;20503;-82
2021/08/12 09:05:35;;;;;;;8.73;7.77;;;;;;;34.79;32.75;95211.78;6275603;22;20480;-82
2021/08/12 09:08:02;;;;;;;9.67;8.70;;;;;;;34.65;33.86;95210.66;6248608;22;20484;-82
2021/08/12 09:10:29;;;;;;;10.17;8.40;;;;;;;34.77;34.08;95195.69;6275421;22;20707;-82
2021/08/12 09:12:56;;;;;;;9.57;8.57;;;;;;;34.89;33.01;95197.31;6276457;22;20401;-82
2021/08/12 09:15:23;;;;;;;10.03;9.03;;;;;;;34.97;33.63;95196.75;6248677;22;21070;-82
2021/08/12 09:17:53;;;;;;;13.60;8.70;;;;;;;35.08;32.95;95193.75;6277138;22;20794;-82
2021/08/12 09:20:21;;;;;;;10.23;9.23;;;;;;;35.07;33.92;95202.22;6224068;22;20454;-82
2021/08/12 09:22:52;;;;;;;16.43;10.03;;;;;;;35.15;32.98;95189.91;6276848;22;20432;-82
2021/08/12 09:25:34;;;;;;;11.73;8.93;;;;;;;35.26;32.53;95192.31;6275956;22;20481;-82
2021/08/12 09:28:17;;;;;;;9.80;8.93;;;;;;;35.21;32.15;95186.06;6275885;22;20408;-82
2021/08/12 09:31:03;;;;;;;10.10;8.40;;;;;;;34.90;32.14;95197.06;6274706;22;20451;-83
2021/08/12 09:33:34;;;;;;;8.80;7.80;;;;;;;33.96;31.99;95197.50;6275832;22;20480;-81
2021/08/12 09:36:02;;;;;;;11.83;8.50;;;;;;;33.85;33.29;95194.78;6224551;22;20515;-81
2021/08/12 09:38:29;;;;;;;7.03;6.43;;;;;;;33.67;32.96;95200.66;6276839;22;20487;-81
2021/08/12 09:40:57;;;;;;;9.70;7.73;;;;;;;33.84;32.94;95192.31;6276271;22;20503;-81
2021/08/12 09:43:28;;;;;;;8.23;7.50;;;;;;;34.01;33.26;95192.06;6277873;22;20409;-81
2021/08/12 09:45:55;;;;;;;12.70;7.80;;;;;;;33.95;32.92;95184.97;6277879;22;20415;-81
2021/08/12 09:48:23;;;;;;;12.47;7.87;;;;;;;34.23;34.95;95186.38;6278062;22;20451;-81
2021/08/12 09:51:03;;;;;;;8.60;7.93;;;;;;;34.42;33.41;95187.53;6277018;22;20454;-81
2021/08/12 09:53:30;;;;;;;7.17;6.57;;;;;;;34.36;29.62;95180.41;6277062;22;21113;-81
2021/08/12 09:56:07;;;;;;;9.30;7.30;;;;;;;34.44;29.68;95183.44;6277902;22;20519;-81
2021/08/12 09:58:35;;;;;;;9.97;8.97;;;;;;;34.53;31.00;95180.97;6276483;22;20404;-81
2021/08/12 10:01:16;;;;;;;9.90;8.20;;;;;;;34.31;32.03;95180.38;6277681;22;20402;-81
2021/08/12 10:03:44;;;;;;;8.63;7.87;;;;;;;34.19;31.57;95183.38;6275189;22;20491;-81
2021/08/12 10:06:21;;;;;;;10.23;7.70;;;;;;;34.00;32.54;95180.34;6275549;22;20409;-80
2021/08/12 10:08:49;;;;;;;9.17;8.27;;;;;;;34.06;33.77;95176.53;6275684;22;20407;-81
2021/08/12 10:11:18;;;;;;;10.40;8.10;;;;;;;33.91;31.06;95173.00;6275938;22;20488;-82
2021/08/12 10:13:46;;;;;;;8.40;7.70;;;;;;;33.56;31.75;95172.59;6275324;22;20487;-80
2021/08/12 10:16:15;;;;;;;7.40;6.73;;;;;;;33.46;31.99;95175.25;6174205;22;20515;-81
2021/08/12 10:18:44;;;;;;;9.03;8.13;;;;;;;33.26;33.03;95175.16;6276031;22;20864;-81
2021/08/12 10:21:12;;;;;;;10.40;7.97;;;;;;;33.18;31.64;95175.66;6222008;22;20479;-81
2021/08/12 10:23:41;;;;;;;11.03;8.37;;;;;;;33.03;32.93;95181.03;6275184;22;20408;-81
2021/08/12 10:26:10;;;;;;;8.47;7.67;;;;;;;32.82;32.89;95182.78;6276444;22;20968;-82
2021/08/12 10:28:39;;;;;;;10.07;8.40;;;;;;;32.51;32.63;95193.41;6276291;22;20929;-81
2021/08/12 10:31:07;;;;;;;10.37;8.40;;;;;;;32.18;34.63;95199.06;6223838;22;20419;-81
2021/08/12 10:33:35;;;;;;;11.50;10.40;;;;;;;31.70;39.68;95192.56;6222284;22;20471;-81
2021/08/12 10:36:03;;;;;;;17.07;10.63;;;;;;;31.23;42.49;95203.97;6275965;22;20475;-82
2021/08/12 10:38:30;;;;;;;11.33;10.10;;;;;;;30.82;43.49;95205.22;6276462;22;20425;-82
2021/08/12 10:40:59;;;;;;;9.07;8.27;;;;;;;30.46;44.82;95198.41;6223327;22;20443;-81
2021/08/12 10:43:28;;;;;;;9.20;8.40;;;;;;;29.99;44.75;95195.97;6277290;22;20432;-83
2021/08/12 10:45:57;;;;;;;11.90;9.47;;;;;;;30.15;45.14;95203.31;6277692;22;20900;-83
2021/08/12 10:48:26;;;;;;;8.77;7.90;;;;;;;30.36;42.28;95214.47;6277815;22;20448;-82
2021/08/12 10:51:12;;;;;;;8.53;6.97;;;;;;;30.61;39.33;95211.41;6277191;22;20405;-82
2021/08/12 10:53:40;;;;;;;9.40;6.43;;;;;;;30.87;39.38;95199.06;6277273;22;20397;-81
2021/08/12 10:56:16;;;;;;;6.03;5.47;;;;;;;30.93;35.01;95193.47;6277624;22;20441;-82
2021/08/12 10:58:52;;;;;;;7.57;6.43;;;;;;;31.09;36.11;95197.22;6224721;22;20955;-81
2021/08/12 11:01:33;;;;;;;7.77;6.70;;;;;;;31.18;34.46;95203.03;6275554;22;20495;-81
2021/08/12 11:04:02;;;;;;;6.30;5.80;;;;;;;31.08;34.08;95190.16;6275975;22;20948;-81
2021/08/12 11:06:40;;;;;;;7.33;6.67;;;;;;;31.11;34.76;95195.06;6276878;22;20396;-81
2021/08/12 11:09:08;;;;;;;6.50;5.90;;;;;;;31.37;34.39;95201.69;6275566;22;20768;-81
2021/08/12 11:12:07;;;;;;;6.37;5.87;;;;;;;31.41;35.02;95194.66;6274054;22;20412;-81
2021/08/12 11:15:01;;;;;;;6.60;6.00;;;;;;;31.52;34.73;95206.50;6183311;23;20407;-81
2021/08/12 11:17:55;;;;;;;5.83;5.30;;;;;;;31.36;35.01;95200.84;6133681;23;21467;-81
2021/08/12 11:20:32;;;;;;;6.80;6.20;;;;;;;31.51;35.45;95204.81;6133729;23;20407;-81
2021/08/12 11:23:32;;;;;;;7.70;5.97;;;;;;;31.44;33.67;95194.97;6183133;23;20403;-81
2021/08/12 11:26:01;;;;;;;6.00;5.60;;;;;;;31.29;32.83;95197.53;6182935;23;20550;-81
2021/08/12 11:28:51;;;;;;;7.47;6.73;;;;;;;31.17;32.26;95201.41;6182827;23;20483;-81
2021/08/12 11:31:51;;;;;;;6.17;5.67;;;;;;;31.18;33.03;95198.44;6093852;23;20485;-81
2021/08/12 11:34:24;;;;;;;5.67;5.27;;;;;;;31.17;32.80;95204.13;5952880;24;20506;-81
2021/08/12 11:37:09;;;;;;;6.20;5.60;;;;;;;30.91;33.54;95200.19;5952746;24;20454;-81
2021/08/12 11:39:47;;;;;;;6.63;6.03;;;;;;;30.68;34.06;95206.66;5956170;23;20825;-81
2021/08/12 11:42:26;;;;;;;7.23;6.50;;;;;;;30.60;33.07;95207.88;5980844;23;20496;-81
2021/08/12 11:44:56;;;;;;;6.50;6.00;;;;;;;30.55;33.33;95206.94;5980672;23;20480;-82
2021/08/12 11:47:24;;;;;;;6.67;6.07;;;;;;;30.43;34.35;95207.03;5978894;23;20422;-80
2021/08/12 11:49:52;;;;;;;5.93;5.33;;;;;;;30.50;33.66;95208.50;6061795;23;20406;-81
2021/08/12 11:52:23;;;;;;;6.37;5.87;;;;;;;30.38;34.45;95206.97;6064806;23;20505;-81
2021/08/12 11:55:01;;;;;;;6.53;6.00;;;;;;;30.29;35.71;95213.81;6016199;23;20935;-81
2021/08/12 11:57:41;;;;;;;8.13;6.57;;;;;;;30.31;38.17;95209.00;6065528;23;20446;-81
2021/08/12 12:00:12;;;;;;;7.07;6.37;;;;;;;30.38;38.42;95212.38;6065594;23;20481;-81
2021/08/12 12:02:50;;;;;;;7.00;6.40;;;;;;;30.27;38.89;95216.78;6064684;23;20498;-81